Time;durP1;ratioP1;P1;durP2;ratioP2;P2;SDS_P1;SDS_P2;PMS_P1;PMS_P2;Temp;Humidity;BMP_temperature;BMP_pressure;BME280_temperature;BME280_humidity;BME280_pressure;Samples;Min_cycle;Max_cycle;Signal;HPM_P1;HPM_P2
2021/10/23 00:02:06;;;;;;;20.95;6.50;;;;;;;7.06;98.77;99699.25;5054393;28;20119;-70
2021/10/23 00:04:32;;;;;;;17.42;6.18;;;;;;;7.00;98.49;99691.31;5054484;28;20217;-70
2021/10/23 00:06:57;;;;;;;12.10;5.20;;;;;;;7.11;98.85;99697.53;5061142;28;20028;-70
2021/10/23 00:09:23;;;;;;;17.17;5.38;;;;;;;7.17;98.32;99702.84;5063305;28;20020;-70
2021/10/23 00:11:48;;;;;;;17.55;5.78;;;;;;;7.12;98.28;99704.53;5050275;28;20024;-70
2021/10/23 00:14:14;;;;;;;16.40;5.38;;;;;;;7.16;98.80;99701.09;5048489;28;20085;-70
2021/10/23 00:16:40;;;;;;;16.48;5.00;;;;;;;7.19;98.70;99706.38;5054939;28;20041;-70
2021/10/23 00:19:05;;;;;;;23.65;5.75;;;;;;;7.24;98.05;99711.66;5045432;28;20029;-70
2021/10/23 00:21:31;;;;;;;20.15;6.28;;;;;;;7.23;98.31;99705.53;5046055;28;20029;-70
2021/10/23 00:23:56;;;;;;;27.65;6.63;;;;;;;7.22;98.26;99711.66;5063698;28;20280;-70
2021/10/23 00:26:22;;;;;;;21.40;6.72;;;;;;;7.26;98.52;99702.97;5059858;28;20047;-70
2021/10/23 00:28:47;;;;;;;20.50;6.95;;;;;;;7.24;97.78;99720.38;5054470;28;20025;-70
2021/10/23 00:31:12;;;;;;;27.23;7.93;;;;;;;7.31;97.52;99721.34;5046555;28;20025;-70
2021/10/23 00:33:39;;;;;;;20.80;6.53;;;;;;;7.44;97.52;99718.84;5065031;28;20029;-70
2021/10/23 00:36:05;;;;;;;31.38;9.57;;;;;;;7.48;97.53;99717.13;5048376;28;20022;-70
2021/10/23 00:38:31;;;;;;;21.35;7.40;;;;;;;7.50;96.88;99718.91;5062525;28;20021;-70
2021/10/23 00:40:56;;;;;;;17.95;6.85;;;;;;;7.49;97.21;99717.16;5061872;28;20070;-70
2021/10/23 00:43:21;;;;;;;33.72;7.55;;;;;;;7.34;97.52;99719.59;5048233;28;20045;-70
2021/10/23 00:45:47;;;;;;;20.17;7.25;;;;;;;7.42;98.31;99720.59;5057978;28;20029;-70
2021/10/23 00:48:13;;;;;;;17.25;6.40;;;;;;;7.48;98.77;99718.03;5047213;28;20084;-70
2021/10/23 00:50:39;;;;;;;14.65;5.53;;;;;;;7.57;98.67;99714.63;5056630;28;20021;-70
2021/10/23 00:53:04;;;;;;;17.00;5.82;;;;;;;7.65;97.86;99724.31;5057609;28;20351;-70
2021/10/23 00:55:30;;;;;;;11.50;5.75;;;;;;;7.61;98.06;99716.41;5052083;28;20309;-70
2021/10/23 00:57:55;;;;;;;17.35;6.45;;;;;;;7.64;98.01;99712.06;5049908;28;20267;-70
2021/10/23 01:00:21;;;;;;;15.35;5.78;;;;;;;7.73;98.20;99714.78;5050477;28;20074;-70
2021/10/23 01:02:47;;;;;;;19.25;6.15;;;;;;;7.72;97.97;99720.88;5056619;28;20021;-70
2021/10/23 01:05:13;;;;;;;16.17;5.63;;;;;;;7.79;97.93;99712.19;5063333;28;20035;-70
2021/10/23 01:07:38;;;;;;;14.63;5.18;;;;;;;7.71;97.22;99737.47;5061401;28;20040;-70
2021/10/23 01:10:06;;;;;;;22.90;7.72;;;;;;;7.72;97.47;99720.00;5044590;28;20021;-70
2021/10/23 01:12:31;;;;;;;20.30;6.63;;;;;;;7.71;97.79;99711.25;5057839;28;20216;-70
2021/10/23 01:14:57;;;;;;;16.73;6.65;;;;;;;7.75;97.38;99725.28;5052951;28;20037;-70
2021/10/23 01:17:23;;;;;;;17.02;6.68;;;;;;;7.84;97.31;99723.59;5048554;28;20047;-70
2021/10/23 01:19:53;;;;;;;19.25;7.75;;;;;;;7.80;96.98;99719.22;5056943;28;20052;-71
2021/10/23 01:22:36;;;;;;;21.92;7.88;;;;;;;7.71;97.19;99723.47;5057462;28;20065;-70
2021/10/23 01:25:02;;;;;;;23.33;6.60;;;;;;;7.69;97.63;99720.84;5047214;28;20031;-70
2021/10/23 01:27:28;;;;;;;20.50;6.50;;;;;;;7.63;97.58;99726.00;5043461;28;20055;-70
2021/10/23 01:29:53;;;;;;;25.88;6.03;;;;;;;7.65;97.55;99713.81;5049312;28;20017;-70
2021/10/23 01:32:19;;;;;;;17.83;5.82;;;;;;;7.69;97.96;99719.97;5062815;28;20039;-70
2021/10/23 01:34:44;;;;;;;14.57;6.15;;;;;;;7.68;98.16;99724.34;5044472;28;20021;-70
2021/10/23 01:37:09;;;;;;;18.92;5.70;;;;;;;7.76;97.73;99733.16;5060492;28;20095;-70
2021/10/23 01:39:35;;;;;;;17.83;5.78;;;;;;;7.79;96.97;99727.91;5055088;28;20052;-70
2021/10/23 01:42:01;;;;;;;19.88;6.85;;;;;;;7.76;97.14;99727.03;5059837;28;20242;-70
2021/10/23 01:44:30;;;;;;;22.67;6.32;;;;;;;7.63;97.07;99740.88;5043795;28;20021;-70
2021/10/23 01:46:56;;;;;;;14.80;5.65;;;;;;;7.63;97.58;99731.25;5061696;28;20058;-70
2021/10/23 01:49:22;;;;;;;23.60;7.22;;;;;;;7.59;98.02;99733.88;5049977;28;20269;-70
2021/10/23 01:51:47;;;;;;;18.98;7.60;;;;;;;7.53;98.26;99732.03;5055571;28;20032;-70
2021/10/23 01:54:13;;;;;;;24.75;6.78;;;;;;;7.57;97.93;99740.81;5059305;28;20092;-70
2021/10/23 01:56:40;;;;;;;19.05;6.25;;;;;;;7.63;98.93;99740.88;5055863;28;20092;-70
2021/10/23 01:59:07;;;;;;;18.42;6.85;;;;;;;7.54;98.63;99741.69;5043659;28;20322;-70
2021/10/23 02:01:33;;;;;;;13.70;5.38;;;;;;;7.54;98.73;99735.53;5051060;28;20017;-70
2021/10/23 02:03:59;;;;;;;13.18;5.32;;;;;;;7.56;98.87;99733.84;5051953;28;20280;-70
2021/10/23 02:06:24;;;;;;;15.85;4.55;;;;;;;7.67;98.21;99743.53;5051752;28;20024;-70
2021/10/23 02:08:50;;;;;;;18.63;7.03;;;;;;;7.66;97.62;99751.41;5044407;28;20032;-70
2021/10/23 02:11:16;;;;;;;19.48;6.97;;;;;;;7.61;98.36;99743.47;5058316;28;20017;-70
2021/10/23 02:13:42;;;;;;;12.32;5.93;;;;;;;7.61;98.49;99748.72;5059123;28;20070;-70
2021/10/23 02:16:08;;;;;;;15.20;5.90;;;;;;;7.61;98.39;99748.72;5052566;28;20026;-70
2021/10/23 02:18:33;;;;;;;23.58;5.72;;;;;;;7.61;98.99;99748.72;5044770;28;20030;-70
2021/10/23 02:20:59;;;;;;;10.40;4.53;;;;;;;7.64;98.65;99748.75;5049434;28;20304;-70
2021/10/23 02:23:24;;;;;;;15.65;5.70;;;;;;;7.72;98.35;99757.56;5055084;28;20059;-70
2021/10/23 02:25:50;;;;;;;16.08;4.75;;;;;;;7.67;98.70;99754.03;5053399;28;20070;-70
2021/10/23 02:28:16;;;;;;;13.30;5.00;;;;;;;7.61;98.30;99751.34;5063051;28;20040;-70
2021/10/23 02:30:41;;;;;;;10.32;4.82;;;;;;;7.59;98.65;99755.69;5059818;28;20317;-70
2021/10/23 02:33:07;;;;;;;17.48;5.22;;;;;;;7.61;98.75;99751.34;5061851;28;20021;-70
2021/10/23 02:35:32;;;;;;;15.02;5.20;;;;;;;7.61;98.67;99759.22;5063116;28;20366;-70
2021/10/23 02:37:58;;;;;;;14.90;5.05;;;;;;;7.62;98.96;99747.84;5043988;28;20084;-70
2021/10/23 02:40:23;;;;;;;14.90;4.53;;;;;;;7.63;98.80;99761.84;5042312;28;20096;-70
2021/10/23 02:42:49;;;;;;;9.73;4.90;;;;;;;7.60;99.07;99762.69;5051936;28;20051;-70
2021/10/23 02:45:15;;;;;;;21.58;5.95;;;;;;;7.62;99.11;99755.72;5044204;28;20017;-70
2021/10/23 02:47:40;;;;;;;26.33;7.00;;;;;;;7.59;98.86;99755.69;5045223;28;20346;-70
2021/10/23 02:50:06;;;;;;;32.03;12.98;;;;;;;7.49;98.43;99753.84;5062541;28;20009;-70
2021/10/23 02:52:32;;;;;;;28.25;10.85;;;;;;;7.56;98.66;99757.41;5050689;28;20021;-70
2021/10/23 02:54:57;;;;;;;19.77;8.88;;;;;;;7.51;99.29;99751.22;5048519;28;20247;-71
2021/10/23 02:57:23;;;;;;;22.63;8.88;;;;;;;7.52;99.16;99753.88;5061572;28;20016;-71
2021/10/23 02:59:48;;;;;;;29.13;7.63;;;;;;;7.53;99.41;99753.00;5059211;28;20063;-71
2021/10/23 03:02:14;;;;;;;20.40;6.85;;;;;;;7.58;99.00;99750.41;5046956;28;20190;-71
2021/10/23 03:04:41;;;;;;;18.30;6.10;;;;;;;7.60;99.28;99754.84;5047026;28;20078;-71
2021/10/23 03:07:06;;;;;;;19.30;6.70;;;;;;;7.62;99.49;99752.19;5057929;28;20021;-71
2021/10/23 03:09:32;;;;;;;21.58;5.85;;;;;;;7.57;99.09;99749.56;5058375;28;20055;-71
2021/10/23 03:11:57;;;;;;;13.85;5.30;;;;;;;7.57;99.45;99757.44;5047601;28;20032;-71
2021/10/23 03:14:22;;;;;;;14.48;6.43;;;;;;;7.57;99.28;99757.44;5066171;28;20214;-71
2021/10/23 03:16:48;;;;;;;25.80;5.82;;;;;;;7.62;99.03;99753.09;5065903;28;20056;-71
2021/10/23 03:19:13;;;;;;;13.57;5.07;;;;;;;7.63;99.29;99751.38;5057838;28;20044;-71
2021/10/23 03:21:39;;;;;;;16.30;5.32;;;;;;;7.64;99.01;99746.13;5060413;28;20021;-71
2021/10/23 03:24:04;;;;;;;13.35;5.15;;;;;;;7.67;99.14;99745.28;5045444;28;20017;-71
2021/10/23 03:26:30;;;;;;;11.23;4.63;;;;;;;7.70;98.76;99748.81;5064737;28;20312;-71
2021/10/23 03:28:56;;;;;;;15.80;3.65;;;;;;;7.67;98.77;99746.16;5059371;28;20020;-71
2021/10/23 03:31:22;;;;;;;15.98;4.95;;;;;;;7.65;99.55;99745.25;5058383;28;20017;-71
2021/10/23 03:33:47;;;;;;;12.80;4.65;;;;;;;7.67;99.67;99743.53;5056872;28;20024;-71
2021/10/23 03:36:13;;;;;;;12.65;4.13;;;;;;;7.66;98.82;99747.00;5065740;28;20017;-71
2021/10/23 03:38:38;;;;;;;19.20;5.97;;;;;;;7.68;99.26;99745.28;5064706;28;20024;-71
2021/10/23 03:41:04;;;;;;;13.98;5.07;;;;;;;7.56;98.99;99734.69;5062784;28;20009;-71
2021/10/23 03:43:29;;;;;;;11.57;4.55;;;;;;;7.51;99.35;99739.03;5052564;28;20028;-71
2021/10/23 03:45:58;;;;;;;12.07;4.80;;;;;;;7.52;99.17;99738.16;5046167;28;20052;-71
2021/10/23 03:48:23;;;;;;;8.93;4.45;;;;;;;7.50;99.17;99744.25;5058290;28;20020;-71
2021/10/23 03:50:49;;;;;;;15.25;4.68;;;;;;;7.45;99.15;99736.34;5057152;28;20252;-71
2021/10/23 03:53:14;;;;;;;11.77;5.30;;;;;;;7.46;99.01;99745.94;5049108;28;20021;-71
2021/10/23 03:55:39;;;;;;;10.90;4.70;;;;;;;7.50;99.16;99745.09;5059335;28;20384;-71
2021/10/23 03:58:05;;;;;;;12.00;4.25;;;;;;;7.44;99.38;99739.78;5065414;28;20021;-71
2021/10/23 04:00:31;;;;;;;14.20;4.40;;;;;;;7.35;98.55;99739.72;5052656;28;20018;-71
2021/10/23 04:02:56;;;;;;;13.50;4.68;;;;;;;7.37;99.21;99743.22;5059046;28;20013;-71
2021/10/23 04:05:22;;;;;;;11.50;5.07;;;;;;;7.37;98.63;99735.34;5064990;28;20335;-71
2021/10/23 04:07:47;;;;;;;12.75;4.45;;;;;;;7.25;98.60;99737.88;5047741;28;20020;-71
2021/10/23 04:10:13;;;;;;;14.80;4.30;;;;;;;7.23;98.92;99736.97;5063957;28;20095;-71
2021/10/23 04:12:39;;;;;;;18.08;4.82;;;;;;;7.24;98.90;99735.22;5064793;28;20375;-71
2021/10/23 04:15:04;;;;;;;13.43;4.45;;;;;;;7.18;98.78;99720.31;5059555;28;20044;-71
2021/10/23 04:17:31;;;;;;;12.18;5.28;;;;;;;7.15;98.90;99729.88;5045522;28;20040;-71
2021/10/23 04:19:56;;;;;;;11.30;4.68;;;;;;;7.16;98.80;99727.28;5045812;28;20025;-71
2021/10/23 04:22:22;;;;;;;12.73;4.57;;;;;;;7.01;98.16;99727.09;5063767;28;20091;-72
2021/10/23 04:24:47;;;;;;;15.07;5.10;;;;;;;6.92;97.99;99726.97;5062125;28;20031;-71
2021/10/23 04:27:13;;;;;;;13.50;4.63;;;;;;;6.86;98.41;99724.28;5055128;28;20021;-71
2021/10/23 04:29:39;;;;;;;11.18;4.53;;;;;;;6.78;98.42;99765.19;5045420;28;20063;-71
2021/10/23 04:32:04;;;;;;;12.75;4.72;;;;;;;6.73;98.88;99735.44;5045318;28;20044;-71
2021/10/23 04:34:30;;;;;;;10.57;3.70;;;;;;;6.63;98.73;99741.44;5049757;28;20104;-71
2021/10/23 04:36:56;;;;;;;12.25;4.80;;;;;;;6.64;98.72;99738.84;5064581;28;20016;-71
2021/10/23 04:39:21;;;;;;;9.75;4.07;;;;;;;6.63;98.58;99728.34;5057881;28;20248;-71
2021/10/23 04:41:47;;;;;;;10.32;3.72;;;;;;;6.65;98.55;99729.25;5045068;28;20021;-71
2021/10/23 04:44:12;;;;;;;11.18;4.78;;;;;;;6.49;98.29;99729.91;5049818;28;20013;-71
2021/10/23 04:46:37;;;;;;;15.15;4.68;;;;;;;6.46;98.80;99735.94;5063664;28;20017;-71
2021/10/23 04:49:03;;;;;;;9.32;3.95;;;;;;;6.44;98.67;99747.25;5046002;28;20218;-71
2021/10/23 04:51:28;;;;;;;13.90;5.18;;;;;;;6.37;98.84;99730.56;5044721;28;20020;-71
2021/10/23 04:53:54;;;;;;;8.82;4.18;;;;;;;6.33;98.92;99733.16;5064118;28;20016;-71
2021/10/23 04:56:19;;;;;;;10.65;3.97;;;;;;;6.25;98.64;99729.53;5058584;28;20021;-71
2021/10/23 04:58:45;;;;;;;9.10;4.30;;;;;;;6.11;98.28;99725.84;5060179;28;20087;-71
2021/10/23 05:01:11;;;;;;;9.02;3.95;;;;;;;6.22;97.96;99729.47;5060594;28;20016;-71
2021/10/23 05:03:37;;;;;;;13.40;4.70;;;;;;;6.11;97.51;99736.28;5048077;28;20020;-71
2021/10/23 05:06:03;;;;;;;17.10;4.97;;;;;;;6.09;97.34;99738.00;5056143;28;20098;-71
2021/10/23 05:08:28;;;;;;;15.38;4.72;;;;;;;5.88;97.05;99735.03;5059720;28;20115;-71
2021/10/23 05:10:54;;;;;;;15.95;4.63;;;;;;;5.71;97.51;99739.06;5050168;28;20023;-71
2021/10/23 05:13:20;;;;;;;13.18;4.22;;;;;;;5.62;97.19;99744.13;5052240;28;20020;-71
2021/10/23 05:15:45;;;;;;;9.07;3.80;;;;;;;5.51;97.62;99737.84;5047743;28;20025;-71
2021/10/23 05:18:10;;;;;;;9.65;4.47;;;;;;;5.54;98.35;99740.50;5062603;28;20228;-71
2021/10/23 05:20:36;;;;;;;9.20;4.90;;;;;;;5.49;97.95;99747.38;5056920;28;20017;-71
2021/10/23 05:23:01;;;;;;;11.82;4.05;;;;;;;5.36;98.01;99750.59;5056619;28;20024;-71
2021/10/23 05:25:27;;;;;;;11.05;4.40;;;;;;;5.36;98.35;99756.72;5063502;28;20017;-71
2021/10/23 05:27:53;;;;;;;10.23;4.00;;;;;;;5.31;98.22;99760.09;5060447;28;20017;-71
2021/10/23 05:30:18;;;;;;;11.05;4.32;;;;;;;5.22;97.67;99758.16;5044257;28;20210;-71
2021/10/23 05:32:43;;;;;;;15.30;3.67;;;;;;;5.24;97.84;99763.41;5044252;28;20021;-71
2021/10/23 05:35:09;;;;;;;6.72;3.47;;;;;;;5.10;97.90;99759.66;5054888;28;20012;-71
2021/10/23 05:37:35;;;;;;;8.48;3.72;;;;;;;5.06;98.19;99771.75;5062660;28;20042;-71
2021/10/23 05:40:00;;;;;;;8.52;3.35;;;;;;;5.16;98.70;99767.63;5060684;28;20088;-71
2021/10/23 05:42:26;;;;;;;10.13;3.60;;;;;;;5.20;97.81;99777.25;5045954;28;20062;-71
2021/10/23 05:44:51;;;;;;;8.40;3.78;;;;;;;5.07;98.13;99777.84;5045228;28;20021;-71
2021/10/23 05:47:17;;;;;;;19.23;4.40;;;;;;;4.93;98.18;99779.31;5051038;28;20009;-71
2021/10/23 05:49:42;;;;;;;11.63;3.78;;;;;;;4.91;98.52;99776.69;5063435;28;20017;-71
2021/10/23 05:52:07;;;;;;;14.00;4.35;;;;;;;5.05;98.15;99779.53;5054269;28;20021;-71
2021/10/23 05:54:37;;;;;;;18.85;4.60;;;;;;;5.10;98.76;99785.75;5057698;28;20248;-71
2021/10/23 05:57:11;;;;;;;9.55;4.35;;;;;;;4.98;98.46;99793.31;5058131;28;20316;-71
2021/10/23 05:59:41;;;;;;;10.50;4.57;;;;;;;5.00;98.26;99796.84;5052598;28;20022;-71
2021/10/23 06:02:22;;;;;;;10.40;5.35;;;;;;;5.10;98.25;99804.03;5049493;28;20312;-71
2021/10/23 06:04:58;;;;;;;18.92;5.90;;;;;;;5.21;97.66;99805.09;5056299;28;20025;-71
2021/10/23 06:07:25;;;;;;;8.80;4.53;;;;;;;5.18;98.58;99811.16;5045897;28;20191;-71
2021/10/23 06:09:51;;;;;;;16.48;4.85;;;;;;;5.14;98.71;99805.84;5043768;28;20242;-71
2021/10/23 06:12:17;;;;;;;10.23;4.20;;;;;;;5.16;98.36;99809.38;5044920;28;20026;-71
2021/10/23 06:14:43;;;;;;;9.13;4.60;;;;;;;5.13;97.34;99809.31;5043766;28;20032;-71
2021/10/23 06:17:09;;;;;;;12.80;4.97;;;;;;;5.01;97.78;99806.44;5052426;28;20241;-71
2021/10/23 06:19:37;;;;;;;23.48;8.05;;;;;;;5.06;98.80;99828.28;5062771;28;20101;-71
2021/10/23 06:22:04;;;;;;;28.38;9.00;;;;;;;5.16;99.06;99835.47;5052645;28;20017;-71
2021/10/23 06:24:29;;;;;;;15.00;6.85;;;;;;;5.11;97.92;99839.69;5054552;28;20017;-71
2021/10/23 06:26:54;;;;;;;20.77;6.22;;;;;;;5.19;98.59;99841.59;5054171;28;20028;-71
2021/10/23 06:29:20;;;;;;;18.75;7.97;;;;;;;5.28;98.33;99841.81;5044713;28;20363;-71
2021/10/23 06:31:45;;;;;;;15.15;7.55;;;;;;;5.26;98.72;99843.53;5050532;28;20045;-71
2021/10/23 06:34:11;;;;;;;18.35;7.35;;;;;;;5.43;98.69;99841.22;5045660;28;20079;-71
2021/10/23 06:36:36;;;;;;;16.08;6.72;;;;;;;5.51;97.38;99839.69;5063682;28;20088;-71
2021/10/23 06:39:02;;;;;;;15.02;6.03;;;;;;;5.43;96.53;99839.50;5066868;28;20024;-71
2021/10/23 06:41:29;;;;;;;15.00;6.13;;;;;;;5.43;96.59;99842.13;5062503;28;20083;-71
2021/10/23 06:43:55;;;;;;;12.98;5.45;;;;;;;5.55;97.08;99837.16;5052472;28;20025;-71
2021/10/23 06:46:23;;;;;;;10.77;6.53;;;;;;;5.62;96.71;99832.91;5059398;28;20074;-71
2021/10/23 06:48:48;;;;;;;19.35;7.47;;;;;;;5.47;96.54;99841.34;5047528;28;20027;-71
2021/10/23 06:51:15;;;;;;;14.88;6.95;;;;;;;5.55;96.95;99837.16;5053090;28;20045;-71
2021/10/23 06:53:40;;;;;;;15.50;6.65;;;;;;;5.74;97.02;99843.59;5052264;28;20059;-71
2021/10/23 06:56:05;;;;;;;22.75;8.30;;;;;;;5.62;96.84;99845.97;5047138;28;20021;-71
2021/10/23 06:58:31;;;;;;;14.45;7.03;;;;;;;5.70;96.78;99853.09;5048632;28;20308;-71
2021/10/23 07:00:56;;;;;;;13.43;6.47;;;;;;;5.80;96.65;99859.41;5056938;28;20116;-71
2021/10/23 07:03:21;;;;;;;18.05;7.63;;;;;;;5.95;96.10;99859.72;5058132;28;20021;-71
2021/10/23 07:05:47;;;;;;;20.98;8.82;;;;;;;6.09;95.44;99869.56;5056536;28;20017;-72
2021/10/23 07:08:13;;;;;;;17.63;7.18;;;;;;;6.25;95.11;99875.94;5059189;28;20045;-71
2021/10/23 07:10:39;;;;;;;26.23;6.63;;;;;;;6.32;94.55;99877.78;5057403;28;20027;-71
2021/10/23 07:13:04;;;;;;;16.05;6.47;;;;;;;6.41;94.50;99872.72;5052711;28;20036;-71
2021/10/23 07:15:30;;;;;;;16.63;6.90;;;;;;;6.49;94.74;99881.59;5047116;28;20213;-71
2021/10/23 07:17:57;;;;;;;11.45;5.95;;;;;;;6.38;95.02;99883.13;5053953;28;20321;-71
2021/10/23 07:20:24;;;;;;;11.93;5.45;;;;;;;6.43;95.91;99889.34;5046602;28;20029;-71
2021/10/23 07:22:50;;;;;;;7.10;4.38;;;;;;;6.68;95.62;99894.13;5061912;28;20020;-71
2021/10/23 07:25:16;;;;;;;9.57;5.07;;;;;;;6.80;95.34;99907.38;5066047;28;20020;-71
2021/10/23 07:27:41;;;;;;;12.13;4.97;;;;;;;7.08;95.45;99911.31;5060331;28;20255;-71
2021/10/23 07:30:09;;;;;;;8.05;4.60;;;;;;;7.18;94.79;99924.53;5051626;28;20039;-71
2021/10/23 07:32:38;;;;;;;8.23;4.20;;;;;;;7.30;95.35;99919.47;5045546;28;20031;-71
2021/10/23 07:35:05;;;;;;;8.70;4.18;;;;;;;7.61;95.05;99926.00;5051093;28;20025;-71
2021/10/23 07:37:31;;;;;;;9.60;4.90;;;;;;;7.81;93.39;99930.63;5068321;28;20025;-71
2021/10/23 07:39:57;;;;;;;11.02;5.78;;;;;;;7.56;92.11;99918.09;5046316;28;20035;-71
2021/10/23 07:42:23;;;;;;;10.35;5.55;;;;;;;7.70;92.14;99916.53;5070200;28;20070;-71
2021/10/23 07:44:49;;;;;;;13.77;6.50;;;;;;;7.54;92.61;99917.19;5060325;28;20021;-71
2021/10/23 07:47:14;;;;;;;15.70;6.30;;;;;;;7.48;93.88;99914.50;5065365;28;20333;-71
2021/10/23 07:49:40;;;;;;;13.65;6.15;;;;;;;7.51;93.57;99914.53;5049252;28;20049;-71
2021/10/23 07:52:06;;;;;;;18.40;6.28;;;;;;;8.02;93.65;99924.75;5077289;28;20099;-71
2021/10/23 07:54:31;;;;;;;16.55;7.45;;;;;;;8.53;92.51;99935.81;5063877;28;20324;-71
2021/10/23 07:56:58;;;;;;;10.48;6.20;;;;;;;9.17;89.64;99937.25;5059550;28;20021;-71
2021/10/23 07:59:26;;;;;;;14.25;7.13;;;;;;;9.43;88.41;99940.91;5049198;28;20032;-71
2021/10/23 08:01:57;;;;;;;20.88;8.60;;;;;;;9.92;86.65;99949.03;5059255;28;20028;-71
2021/10/23 08:04:23;;;;;;;18.25;6.82;;;;;;;10.06;85.68;99946.47;5051100;28;20017;-71
2021/10/23 08:06:48;;;;;;;19.15;6.80;;;;;;;10.22;84.09;99951.81;5045846;28;20024;-71
2021/10/23 08:09:13;;;;;;;13.25;6.05;;;;;;;10.29;84.00;99955.34;5045805;28;20017;-71
2021/10/23 08:11:43;;;;;;;17.58;6.80;;;;;;;10.31;85.05;99958.84;5045769;28;20097;-71
2021/10/23 08:14:10;;;;;;;16.75;6.13;;;;;;;10.82;83.45;99964.19;5045724;28;20018;-71
2021/10/23 08:16:36;;;;;;;12.45;5.75;;;;;;;10.79;82.25;99958.94;5044372;28;20049;-72
2021/10/23 08:19:02;;;;;;;14.55;5.82;;;;;;;10.88;83.26;99964.19;5045712;28;20093;-72
2021/10/23 08:21:27;;;;;;;12.55;5.55;;;;;;;10.94;82.39;99969.47;5045577;28;20021;-71
2021/10/23 08:23:53;;;;;;;16.70;5.85;;;;;;;11.07;82.63;99976.50;5045533;28;20021;-71
2021/10/23 08:26:18;;;;;;;13.43;5.60;;;;;;;10.83;83.31;99971.25;5045447;28;20084;-71
2021/10/23 08:28:44;;;;;;;22.00;6.57;;;;;;;10.86;82.73;99965.97;5045417;28;20344;-71
2021/10/23 08:31:09;;;;;;;15.32;5.30;;;;;;;11.04;82.65;99968.59;5045411;28;20075;-71
2021/10/23 08:33:34;;;;;;;18.23;5.30;;;;;;;11.06;84.39;99969.47;5045342;28;20392;-71
2021/10/23 08:36:00;;;;;;;13.93;6.05;;;;;;;11.15;83.65;99969.47;5045294;28;20094;-71
2021/10/23 08:38:26;;;;;;;13.93;5.60;;;;;;;10.99;84.60;99973.00;5045242;28;20244;-71
2021/10/23 08:40:53;;;;;;;15.63;5.40;;;;;;;11.09;85.15;99984.41;5045141;28;20025;-71
2021/10/23 08:43:20;;;;;;;12.35;5.22;;;;;;;11.29;84.26;99978.25;5045075;28;20021;-71
2021/10/23 08:45:47;;;;;;;20.02;6.78;;;;;;;11.44;83.56;99972.97;5043946;28;20104;-71
2021/10/23 08:48:15;;;;;;;18.38;7.65;;;;;;;11.53;84.21;99977.34;5043897;28;20101;-71
2021/10/23 08:50:41;;;;;;;13.90;6.60;;;;;;;11.61;84.44;99971.16;5044958;28;20044;-71
2021/10/23 08:53:08;;;;;;;13.35;6.95;;;;;;;11.97;81.85;99971.09;5044955;28;20021;-71
2021/10/23 08:55:33;;;;;;;17.40;6.68;;;;;;;12.29;80.73;99976.22;5043763;28;20041;-71
2021/10/23 08:57:59;;;;;;;20.75;5.45;;;;;;;12.32;80.81;99979.75;5044876;28;20032;-71
2021/10/23 09:00:25;;;;;;;16.73;5.57;;;;;;;12.62;80.13;99974.28;5044246;28;20025;-71
2021/10/23 09:02:51;;;;;;;16.83;5.72;;;;;;;12.75;78.70;99969.78;5044707;28;20085;-71
2021/10/23 09:05:17;;;;;;;17.15;5.10;;;;;;;12.77;79.19;99982.13;5044737;28;20021;-71
2021/10/23 09:07:44;;;;;;;19.10;5.00;;;;;;;12.96;78.93;99981.09;5044708;28;20085;-71
2021/10/23 09:10:10;;;;;;;19.40;5.30;;;;;;;12.96;79.98;99980.22;5044586;28;20017;-71
2021/10/23 09:12:37;;;;;;;18.77;5.05;;;;;;;12.91;80.95;99977.59;5044580;28;20028;-71
2021/10/23 09:15:12;;;;;;;16.25;5.85;;;;;;;12.88;80.18;99976.75;5044655;28;20017;-71
2021/10/23 09:17:48;;;;;;;15.60;3.97;;;;;;;12.89;77.97;99979.41;5043176;28;20109;-71
2021/10/23 09:20:16;;;;;;;15.00;5.13;;;;;;;13.00;77.90;99980.22;5044414;28;20085;-71
2021/10/23 09:22:43;;;;;;;14.50;5.05;;;;;;;13.06;79.47;99981.91;5044417;28;20081;-71
2021/10/23 09:25:15;;;;;;;12.23;4.68;;;;;;;13.12;79.40;99986.28;5049027;28;20252;-71
2021/10/23 09:28:00;;;;;;;20.23;6.20;;;;;;;12.98;78.65;99989.00;5057439;28;20284;-71
2021/10/23 09:30:32;;;;;;;20.33;4.80;;;;;;;12.92;77.78;99979.34;5044957;28;20036;-71
2021/10/23 09:33:17;;;;;;;19.48;4.97;;;;;;;12.90;77.14;99981.13;5045713;28;20025;-70
2021/10/23 09:35:44;;;;;;;21.25;5.35;;;;;;;13.00;78.95;99982.84;5043978;28;20052;-70
2021/10/23 09:38:24;;;;;;;16.23;5.03;;;;;;;12.88;78.50;99984.69;5043123;28;20072;-70
2021/10/23 09:40:53;;;;;;;19.67;6.00;;;;;;;12.93;78.77;99978.47;5044127;28;20021;-70
2021/10/23 09:43:28;;;;;;;13.05;5.20;;;;;;;13.08;76.98;99980.16;5044119;28;20032;-69
2021/10/23 09:46:00;;;;;;;21.52;5.20;;;;;;;13.17;77.70;99982.72;5044133;28;20049;-69
2021/10/23 09:48:36;;;;;;;18.00;5.85;;;;;;;12.87;79.08;99983.81;5044041;28;20025;-69
2021/10/23 09:51:23;;;;;;;18.42;6.07;;;;;;;12.89;79.56;99989.06;5044028;28;20416;-69
2021/10/23 09:53:54;;;;;;;18.45;5.47;;;;;;;12.79;78.05;99982.09;5043961;28;20039;-69
2021/10/23 09:56:35;;;;;;;22.60;6.40;;;;;;;12.81;78.84;99986.47;5043978;28;20057;-70
2021/10/23 09:59:04;;;;;;;18.45;6.18;;;;;;;12.76;80.20;99987.41;5043885;28;20124;-70
2021/10/23 10:01:31;;;;;;;19.45;7.18;;;;;;;12.78;80.39;99986.50;5043891;28;20021;-70
2021/10/23 10:04:02;;;;;;;21.10;6.90;;;;;;;12.88;78.83;99987.34;5048000;28;20063;-70
2021/10/23 10:06:29;;;;;;;30.70;7.25;;;;;;;12.90;79.82;100012.84;5048017;28;20032;-70
2021/10/23 10:08:55;;;;;;;18.88;6.10;;;;;;;13.06;80.42;99986.34;5052553;28;20088;-70
2021/10/23 10:11:21;;;;;;;21.33;7.30;;;;;;;13.11;79.57;99990.72;5063977;28;20108;-70
2021/10/23 10:13:49;;;;;;;16.58;6.32;;;;;;;13.34;78.58;99988.72;5062763;28;20024;-70
2021/10/23 10:16:15;;;;;;;13.77;5.50;;;;;;;13.43;74.88;99988.66;5066911;28;20024;-70
2021/10/23 10:18:41;;;;;;;21.70;6.05;;;;;;;13.43;74.71;99993.06;5055765;28;20029;-70
2021/10/23 10:21:09;;;;;;;18.63;6.10;;;;;;;13.51;75.16;99989.44;5051140;28;20021;-70
2021/10/23 10:23:39;;;;;;;20.85;6.80;;;;;;;14.12;72.49;99993.22;5047835;28;20048;-70
2021/10/23 10:26:27;;;;;;;23.15;7.05;;;;;;;14.65;74.43;99995.19;5048793;28;20043;-70
2021/10/23 10:31:42;;;;;;;20.15;6.63;;;;;;;14.83;73.90;99984.31;5060849;28;20020;-70
2021/10/23 10:34:12;;;;;;;16.45;6.13;;;;;;;15.21;70.54;99976.63;5057130;28;20044;-70
2021/10/23 10:36:38;;;;;;;16.15;6.55;;;;;;;15.25;68.19;99973.00;5054712;28;20031;-70
2021/10/23 10:40:01;;;;;;;12.23;6.03;;;;;;;15.10;71.95;99965.31;5068243;28;20029;-70
2021/10/23 10:42:50;;;;;;;16.67;5.95;;;;;;;15.12;72.63;99971.47;5061694;28;20213;-70
2021/10/23 10:45:37;;;;;;;17.45;6.18;;;;;;;14.96;70.52;99962.00;5066286;28;20024;-70
2021/10/23 10:48:47;;;;;;;18.20;5.18;;;;;;;15.25;69.08;99961.53;5048581;28;20013;-70
2021/10/23 10:51:14;;;;;;;21.08;6.43;;;;;;;15.18;69.90;99955.44;5063549;28;20090;-70
2021/10/23 10:54:06;;;;;;;16.55;5.32;;;;;;;15.42;68.50;99959.50;5056088;28;20017;-70
2021/10/23 10:56:45;;;;;;;12.27;5.47;;;;;;;15.70;67.53;99956.31;5048082;28;20043;-70
2021/10/23 10:59:11;;;;;;;17.00;5.15;;;;;;;15.76;67.07;99956.19;5061025;28;20031;-70
2021/10/23 11:01:36;;;;;;;14.70;5.00;;;;;;;15.89;67.75;99952.41;5052705;28;20225;-70
2021/10/23 11:04:03;;;;;;;14.25;4.78;;;;;;;15.98;65.00;99949.53;5062827;28;20100;-70
2021/10/23 11:06:31;;;;;;;10.15;3.92;;;;;;;15.72;64.81;99943.88;5056755;28;20325;-70
2021/10/23 11:09:12;;;;;;;14.63;4.97;;;;;;;15.50;64.68;99950.50;5062652;28;20016;-70
2021/10/23 11:11:47;;;;;;;10.88;5.32;;;;;;;15.72;65.23;99949.19;5050830;28;20058;-70
2021/10/23 11:14:25;;;;;;;19.38;4.85;;;;;;;15.65;64.90;99939.59;5058131;28;20085;-70
2021/10/23 11:17:00;;;;;;;11.98;4.63;;;;;;;15.82;64.69;99948.09;5050142;28;20100;-70
2021/10/23 11:19:37;;;;;;;14.43;4.97;;;;;;;15.81;65.56;99937.50;5061627;28;20036;-70
2021/10/23 11:22:23;;;;;;;12.18;3.92;;;;;;;15.83;64.27;99936.59;5064935;28;20028;-70
2021/10/23 11:25:04;;;;;;;15.27;5.28;;;;;;;15.80;64.48;99933.13;5046610;28;20017;-70
2021/10/23 11:27:37;;;;;;;13.23;5.30;;;;;;;15.46;66.20;99935.53;5046635;28;20025;-70
2021/10/23 11:30:09;;;;;;;14.05;4.55;;;;;;;15.39;64.38;99933.91;5059829;28;20036;-70
2021/10/23 11:32:39;;;;;;;12.00;4.20;;;;;;;15.36;65.34;99933.91;5065159;28;20021;-70
2021/10/23 11:35:06;;;;;;;12.60;4.32;;;;;;;15.11;65.45;99927.28;5050201;28;20216;-70
2021/10/23 11:37:32;;;;;;;12.88;4.35;;;;;;;14.85;67.28;99918.91;5061475;28;20020;-70